createdAt,value
2023-02-03T00:00:52.676Z,2.45
2023-02-03T00:02:55.819Z,2.70
2023-02-03T00:04:58.304Z,2.28
2023-02-03T00:07:00.740Z,2.45
2023-02-03T00:09:03.125Z,2.17
2023-02-03T00:11:06.115Z,2.33
2023-02-03T00:13:09.320Z,1.75
2023-02-03T00:15:11.881Z,2.10
2023-02-03T00:17:15.415Z,2.90
2023-02-03T00:19:17.841Z,2.63
2023-02-03T00:21:21.035Z,2.55
2023-02-03T00:23:23.301Z,2.70
2023-02-03T00:25:25.628Z,2.47
2023-02-03T00:27:27.950Z,3.22
2023-02-03T00:29:30.259Z,2.67
2023-02-03T00:31:32.713Z,2.67
2023-02-03T00:33:35.168Z,2.95
2023-02-03T00:35:40.580Z,2.53
2023-02-03T00:37:42.816Z,2.60
2023-02-03T00:39:44.937Z,2.42
2023-02-03T00:41:47.325Z,2.33
2023-02-03T00:43:50.205Z,2.47
2023-02-03T00:45:52.622Z,1.90
2023-02-03T00:47:54.821Z,2.22
2023-02-03T00:49:58.256Z,2.17
2023-02-03T00:52:00.891Z,2.13
2023-02-03T00:54:03.481Z,2.17
2023-02-03T00:56:12.973Z,2.55
2023-02-03T00:58:15.111Z,1.67
2023-02-03T01:00:19.030Z,1.85
2023-02-03T01:02:21.473Z,1.50
2023-02-03T01:04:39.090Z,1.67
2023-02-03T01:06:42.274Z,2.30
2023-02-03T01:08:45.115Z,1.50
2023-02-03T01:10:48.187Z,1.23
2023-02-03T01:12:50.409Z,1.55
2023-02-03T01:14:52.895Z,1.80
2023-02-03T01:16:55.398Z,1.90
2023-02-03T01:18:57.753Z,1.90
2023-02-03T01:21:09.095Z,2.08
2023-02-03T01:23:11.351Z,2.80
2023-02-03T01:25:17.241Z,1.70
2023-02-03T01:27:20.746Z,2.55
2023-02-03T01:29:22.963Z,2.15
2023-02-03T01:31:39.916Z,2.22
2023-02-03T01:33:46.567Z,2.03
2023-02-03T01:35:49.137Z,1.73
2023-02-03T01:37:52.037Z,1.90
2023-02-03T01:39:55.056Z,1.60
2023-02-03T01:41:58.286Z,1.77
2023-02-03T01:44:02.646Z,1.60
2023-02-03T01:46:16.319Z,2.20
2023-02-03T01:48:21.228Z,3.17
2023-02-03T01:50:32.785Z,2.65
2023-02-03T01:52:37.040Z,1.73
2023-02-03T01:54:45.010Z,2.30
2023-02-03T01:56:54.819Z,1.40
2023-02-03T01:59:01.170Z,1.85
2023-02-03T02:01:07.277Z,1.65
2023-02-03T02:03:12.285Z,1.75
2023-02-03T02:05:46.503Z,1.77
2023-02-03T02:07:49.404Z,1.63
2023-02-03T02:09:52.338Z,1.33
2023-02-03T02:11:57.936Z,2.20
2023-02-03T02:14:03.636Z,1.85
2023-02-03T02:16:31.550Z,2.22
2023-02-03T02:18:51.555Z,3.33
2023-02-03T02:21:02.508Z,2.92
2023-02-03T02:23:19.947Z,2.85
2023-02-03T02:26:04.830Z,2.28
2023-02-03T02:28:26.262Z,3.10
2023-02-03T02:31:09.482Z,3.88
2023-02-03T02:33:37.972Z,4.97
2023-02-03T02:36:04.764Z,5.30
2023-02-03T02:38:12.971Z,3.95
2023-02-03T02:40:28.755Z,4.32
2023-02-03T02:42:36.851Z,4.15
2023-02-03T02:44:51.121Z,4.00
2023-02-03T02:46:57.200Z,4.45
2023-02-03T02:49:14.727Z,4.72
2023-02-03T02:51:17.702Z,4.50
2023-02-03T02:53:25.256Z,3.38
2023-02-03T02:55:33.315Z,5.57
2023-02-03T02:57:41.403Z,6.50
2023-02-03T02:59:43.815Z,7.15
2023-02-03T03:01:46.013Z,8.15
2023-02-03T03:03:48.979Z,9.40
2023-02-03T03:06:06.042Z,9.52
2023-02-03T03:08:14.684Z,9.30
2023-02-03T03:10:24.909Z,8.82
2023-02-03T03:12:32.156Z,10.20
2023-02-03T03:18:49.662Z,6.50
2023-02-03T03:20:55.800Z,7.47
2023-02-03T03:23:05.408Z,6.18
2023-02-03T03:25:15.244Z,11.40
2023-02-03T03:27:17.765Z,9.52
2023-02-03T03:29:25.339Z,10.63
2023-02-03T03:31:28.183Z,10.55
2023-02-03T03:33:30.774Z,10.38
2023-02-03T03:35:38.087Z,8.80
2023-02-03T03:40:10.143Z,10.75
2023-02-03T03:42:28.811Z,8.82
2023-02-03T03:44:40.140Z,8.45
2023-02-03T03:46:50.612Z,7.50
2023-02-03T03:48:59.193Z,7.78
2023-02-03T03:51:38.798Z,7.75
2023-02-03T03:53:44.759Z,6.07
2023-02-03T03:55:51.604Z,7.57
2023-02-03T03:58:00.218Z,6.32
2023-02-03T04:00:06.660Z,9.25
2023-02-03T04:02:14.946Z,8.15
2023-02-03T04:04:19.064Z,7.50
2023-02-03T04:06:21.360Z,8.18
2023-02-03T04:08:24.405Z,8.05
2023-02-03T04:10:37.229Z,7.03
2023-02-03T04:12:39.466Z,6.60
2023-02-03T04:14:42.327Z,6.10
2023-02-03T04:16:44.972Z,5.07
2023-02-03T04:18:47.688Z,5.32
2023-02-03T04:20:50.284Z,5.30
2023-02-03T04:22:52.671Z,4.63
2023-02-03T04:24:55.593Z,6.00
2023-02-03T04:26:57.881Z,5.20
2023-02-03T04:29:00.672Z,4.43
2023-02-03T04:31:02.788Z,4.75
2023-02-03T04:33:05.255Z,5.53
2023-02-03T04:35:08.801Z,6.22
2023-02-03T04:37:11.133Z,5.55
2023-02-03T04:39:14.599Z,5.70
2023-02-03T04:41:17.782Z,5.85
2023-02-03T04:43:21.190Z,4.88
2023-02-03T04:45:24.175Z,5.20
2023-02-03T04:47:26.482Z,5.13
2023-02-03T04:49:28.911Z,5.47
2023-02-03T04:51:31.016Z,5.85
2023-02-03T04:53:33.794Z,5.88
2023-02-03T04:55:36.077Z,7.97
2023-02-03T04:57:38.325Z,8.18
2023-02-03T04:59:40.854Z,6.97
2023-02-03T05:01:43.210Z,4.18
2023-02-03T05:03:45.615Z,4.00
2023-02-03T05:05:49.542Z,3.50
2023-02-03T05:07:51.627Z,3.50
2023-02-03T05:09:53.910Z,3.20
2023-02-03T05:11:56.469Z,3.85
2023-02-03T05:13:59.321Z,4.95
2023-02-03T05:16:01.921Z,4.63
2023-02-03T05:18:04.480Z,3.90
2023-02-03T05:20:08.002Z,4.57
2023-02-03T05:22:10.258Z,4.47
2023-02-03T05:24:12.793Z,4.50
2023-02-03T05:26:15.090Z,5.47
2023-02-03T05:28:17.600Z,5.45
2023-02-03T05:30:20.157Z,5.78
2023-02-03T05:32:22.365Z,4.38
2023-02-03T05:34:25.110Z,5.25
2023-02-03T05:36:27.364Z,4.93
2023-02-03T05:38:29.992Z,4.63
2023-02-03T05:40:50.880Z,4.15
2023-02-03T05:42:53.000Z,4.22
2023-02-03T05:44:55.151Z,3.65
2023-02-03T05:46:59.763Z,4.15
2023-02-03T05:49:02.036Z,3.65
2023-02-03T05:51:04.401Z,4.00
2023-02-03T05:53:07.999Z,4.45
2023-02-03T05:55:10.419Z,4.45
2023-02-03T05:57:13.629Z,3.95
2023-02-03T05:59:15.711Z,4.10
2023-02-03T06:01:19.726Z,4.63
2023-02-03T06:03:22.194Z,4.20
2023-02-03T06:05:26.723Z,5.60
2023-02-03T06:07:29.046Z,5.15
2023-02-03T06:09:31.243Z,5.25
2023-02-03T06:11:36.202Z,5.30
2023-02-03T06:13:38.894Z,4.95
2023-02-03T06:15:41.290Z,5.32
2023-02-03T06:17:48.413Z,4.22
2023-02-03T06:19:51.065Z,4.63
2023-02-03T06:21:53.498Z,3.72
2023-02-03T06:23:57.565Z,5.07
2023-02-03T06:26:00.828Z,4.63
2023-02-03T06:28:03.315Z,4.15
2023-02-03T06:30:06.118Z,4.15
2023-02-03T06:32:09.256Z,4.28
2023-02-03T06:34:11.671Z,4.03
2023-02-03T06:36:13.989Z,5.20
2023-02-03T06:38:16.209Z,3.88
2023-02-03T06:40:19.008Z,3.75
2023-02-03T06:42:21.468Z,4.53
2023-02-03T06:44:24.074Z,3.33
2023-02-03T06:46:30.247Z,4.30
2023-02-03T06:48:33.029Z,3.58
2023-02-03T06:50:36.253Z,4.10
2023-02-03T06:52:38.654Z,3.88
2023-02-03T06:54:41.824Z,4.30
2023-02-03T06:56:44.789Z,3.88
2023-02-03T06:58:46.971Z,3.67
2023-02-03T07:00:49.619Z,3.00
2023-02-03T07:02:57.081Z,4.30
2023-02-03T07:04:59.267Z,4.22
2023-02-03T07:07:01.701Z,3.88
2023-02-03T07:09:05.919Z,3.90
2023-02-03T07:11:08.582Z,4.93
2023-02-03T07:13:10.880Z,3.80
2023-02-03T07:15:13.375Z,4.47
2023-02-03T07:17:16.058Z,5.40
2023-02-03T07:19:18.287Z,5.38
2023-02-03T07:21:21.356Z,4.90
2023-02-03T07:23:23.766Z,5.78
2023-02-03T07:25:26.583Z,4.50
2023-02-03T07:27:29.926Z,4.38
2023-02-03T07:29:32.080Z,5.40
2023-02-03T07:31:35.925Z,5.10
2023-02-03T07:33:39.328Z,5.35
2023-02-03T07:35:41.585Z,6.50
2023-02-03T07:37:44.522Z,6.25
2023-02-03T07:39:47.690Z,7.97
2023-02-03T07:41:50.103Z,6.25
2023-02-03T07:43:52.472Z,6.85
2023-02-03T07:45:55.620Z,7.70
2023-02-03T07:47:58.529Z,7.60
2023-02-03T07:50:00.980Z,6.88
2023-02-03T07:52:03.449Z,7.05
2023-02-03T07:54:06.175Z,6.22
2023-02-03T07:56:08.629Z,6.43
2023-02-03T07:58:10.993Z,5.43
2023-02-03T08:00:16.642Z,6.40
2023-02-03T08:02:19.289Z,6.20
2023-02-03T08:04:22.705Z,8.85
2023-02-03T08:06:25.115Z,7.45
2023-02-03T08:08:27.501Z,6.85
2023-02-03T08:10:30.006Z,6.03
2023-02-03T08:12:32.624Z,6.10
2023-02-03T08:14:34.887Z,5.90
2023-02-03T08:16:37.353Z,7.47
2023-02-03T08:18:40.090Z,6.97
2023-02-03T08:20:42.440Z,8.85
2023-02-03T08:22:44.632Z,8.85
2023-02-03T08:24:47.992Z,6.75
2023-02-03T08:26:50.239Z,8.00
2023-02-03T08:28:52.534Z,8.95
2023-02-03T08:30:56.546Z,9.50
2023-02-03T08:32:59.004Z,9.70
2023-02-03T08:35:01.600Z,9.80
2023-02-03T08:37:05.172Z,9.02
2023-02-03T08:39:08.113Z,7.72
2023-02-03T08:41:13.080Z,8.85
2023-02-03T08:43:15.635Z,7.45
2023-02-03T08:45:18.302Z,7.15
2023-02-03T08:47:20.962Z,8.80
2023-02-03T08:49:23.520Z,7.65
2023-02-03T08:51:25.942Z,8.48
2023-02-03T08:53:28.840Z,7.85
2023-02-03T08:55:31.530Z,8.25
2023-02-03T08:57:36.095Z,9.77
2023-02-03T08:59:40.969Z,11.60
2023-02-03T09:01:48.874Z,9.57
2023-02-03T09:03:51.676Z,10.70
2023-02-03T09:05:54.137Z,9.02
2023-02-03T09:07:56.644Z,9.93
2023-02-03T09:09:59.097Z,8.65
2023-02-03T09:12:03.143Z,7.72
2023-02-03T09:14:07.391Z,9.05
2023-02-03T09:16:10.265Z,7.43
2023-02-03T09:18:13.677Z,7.68
2023-02-03T09:20:16.693Z,8.45
2023-02-03T09:22:19.224Z,7.47
2023-02-03T09:24:22.679Z,8.65
2023-02-03T09:26:25.792Z,8.40
2023-02-03T09:28:28.329Z,7.85
2023-02-03T09:30:31.276Z,6.88
2023-02-03T09:32:34.924Z,6.32
2023-02-03T09:34:38.498Z,6.97
2023-02-03T09:36:42.805Z,6.75
2023-02-03T09:38:45.580Z,6.80
2023-02-03T09:41:09.318Z,6.78
2023-02-03T09:43:41.847Z,6.68
2023-02-03T09:45:44.902Z,7.80
2023-02-03T09:47:54.360Z,6.93
2023-02-03T09:50:03.530Z,8.15
2023-02-03T09:52:23.097Z,7.60
2023-02-03T09:54:35.475Z,7.28
2023-02-03T09:56:41.377Z,6.80
2023-02-03T09:58:45.535Z,7.68
2023-02-03T10:00:52.232Z,7.55
2023-02-03T10:05:21.868Z,6.93
2023-02-03T10:07:43.853Z,6.35
2023-02-03T10:09:58.069Z,7.03
2023-02-03T10:12:03.346Z,6.45
2023-02-03T10:14:21.376Z,6.78
2023-02-03T10:16:50.187Z,6.40
2023-02-03T10:18:56.844Z,7.00
2023-02-03T10:21:11.009Z,7.03
2023-02-03T10:23:28.100Z,7.00
2023-02-03T10:25:57.873Z,6.45
2023-02-03T10:28:06.026Z,6.97
2023-02-03T10:30:20.723Z,7.90
2023-02-03T10:32:25.234Z,8.65
2023-02-03T10:34:27.710Z,9.60
2023-02-03T10:36:40.816Z,9.30
2023-02-03T10:39:08.111Z,7.93
2023-02-03T10:41:11.223Z,8.85
2023-02-03T10:43:32.658Z,6.82
2023-02-03T10:45:39.023Z,8.30
2023-02-03T10:48:14.009Z,7.68
2023-02-03T10:50:23.776Z,8.95
2023-02-03T10:52:34.489Z,8.52
2023-02-03T10:54:38.665Z,8.05
2023-02-03T10:56:41.741Z,8.38
2023-02-03T10:58:56.197Z,7.55
2023-02-03T11:01:13.639Z,6.93
2023-02-03T11:03:29.751Z,7.90
2023-02-03T11:05:33.054Z,7.97
2023-02-03T11:07:35.836Z,8.80
2023-02-03T11:09:45.914Z,7.88
2023-02-03T11:11:48.381Z,7.25
2023-02-03T11:13:55.781Z,8.73
2023-02-03T11:16:12.530Z,7.90
2023-02-03T11:18:36.833Z,7.88
2023-02-03T11:20:39.722Z,8.13
2023-02-03T11:22:44.398Z,7.57
2023-02-03T11:24:47.161Z,7.40
2023-02-03T11:27:05.676Z,7.10
2023-02-03T11:29:17.656Z,6.85
2023-02-03T11:31:32.328Z,8.15
2023-02-03T11:33:35.396Z,7.57
2023-02-03T11:35:39.128Z,8.20
2023-02-03T11:37:43.905Z,8.40
2023-02-03T11:39:46.826Z,6.97
2023-02-03T11:41:50.439Z,8.60
2023-02-03T11:43:56.474Z,8.00
2023-02-03T11:46:09.105Z,9.93
2023-02-03T11:48:24.209Z,9.30
2023-02-03T11:50:39.355Z,10.13
2023-02-03T11:52:48.642Z,8.70
2023-02-03T11:55:01.392Z,9.95
2023-02-03T11:57:35.631Z,11.00
2023-02-03T12:00:04.009Z,9.63
2023-02-03T12:02:30.198Z,6.75
2023-02-03T12:04:44.525Z,6.05
2023-02-03T12:07:37.447Z,6.05
2023-02-03T12:10:04.667Z,7.80
2023-02-03T12:12:25.209Z,7.95
2023-02-03T12:14:35.640Z,6.13
2023-02-03T12:17:01.454Z,5.18
2023-02-03T12:19:12.614Z,4.55
2023-02-03T12:21:36.821Z,3.75
2023-02-03T12:24:18.370Z,3.60
2023-02-03T12:27:07.023Z,3.22
2023-02-03T12:29:19.006Z,4.35
2023-02-03T12:31:31.593Z,4.30
2023-02-03T12:33:57.086Z,4.60
2023-02-03T12:36:11.722Z,5.50
2023-02-03T12:38:29.456Z,5.85
2023-02-03T12:40:49.247Z,5.72
2023-02-03T12:42:59.405Z,5.55
2023-02-03T12:45:07.651Z,5.88
2023-02-03T12:47:23.342Z,5.55
2023-02-03T12:49:46.301Z,4.72
2023-02-03T12:52:10.637Z,4.65
2023-02-03T12:54:42.368Z,5.13
2023-02-03T12:56:51.333Z,5.53
2023-02-03T12:59:02.388Z,6.32
2023-02-03T13:01:19.608Z,5.68
2023-02-03T13:03:29.376Z,4.25
2023-02-03T13:05:56.090Z,3.67
2023-02-03T13:08:34.602Z,4.00
2023-02-03T13:10:56.006Z,5.28
2023-02-03T13:12:59.771Z,5.18
2023-02-03T13:15:33.209Z,5.22
2023-02-03T13:17:47.229Z,4.35
2023-02-03T13:19:54.540Z,5.25
2023-02-03T13:24:00.286Z,4.97
2023-02-03T13:26:17.845Z,5.80
2023-02-03T13:28:41.898Z,5.90
2023-02-03T13:30:55.410Z,5.25
2023-02-03T13:33:12.885Z,6.03
2023-02-03T13:35:34.024Z,7.00
2023-02-03T13:37:59.277Z,5.00
2023-02-03T13:40:18.113Z,3.53
2023-02-03T13:42:28.050Z,3.17
2023-02-03T13:44:30.837Z,3.42
2023-02-03T13:46:35.993Z,4.00
2023-02-03T13:48:38.682Z,4.03
2023-02-03T13:50:42.059Z,5.28
2023-02-03T13:53:15.532Z,5.68
2023-02-03T13:55:30.087Z,7.53
2023-02-03T13:57:39.319Z,8.60
2023-02-03T13:59:45.443Z,9.45
2023-02-03T14:01:48.216Z,9.32
2023-02-03T14:03:50.715Z,9.07
2023-02-03T14:05:56.057Z,11.18
2023-02-03T14:07:58.503Z,13.25
2023-02-03T14:10:12.742Z,12.40
2023-02-03T14:12:30.150Z,12.00
2023-02-03T14:14:35.409Z,9.57
2023-02-03T14:16:48.403Z,7.97
2023-02-03T14:18:51.195Z,9.13
2023-02-03T14:21:10.649Z,8.15
2023-02-03T14:23:25.409Z,8.48
2023-02-03T14:25:29.270Z,7.80
2023-02-03T14:27:32.808Z,8.00
2023-02-03T14:29:37.131Z,8.82
2023-02-03T14:32:03.100Z,8.63
2023-02-03T14:34:13.371Z,6.82
2023-02-03T14:36:28.328Z,6.60
2023-02-03T14:38:33.729Z,4.43
2023-02-03T14:41:06.647Z,2.42
2023-02-03T14:43:29.969Z,2.30
2023-02-03T14:45:58.943Z,2.80
2023-02-03T14:48:27.369Z,3.13
2023-02-03T14:50:35.650Z,2.50
2023-02-03T14:53:04.894Z,2.67
2023-02-03T14:55:29.312Z,2.00
2023-02-03T14:57:50.069Z,2.15
2023-02-03T15:00:26.464Z,1.88
2023-02-03T15:02:32.046Z,2.55
2023-02-03T15:04:34.777Z,2.13
2023-02-03T15:06:46.957Z,3.13
2023-02-03T15:08:50.281Z,2.58
2023-02-03T15:10:52.812Z,2.83
2023-02-03T15:12:58.556Z,2.30
2023-02-03T15:15:18.890Z,3.25
2023-02-03T15:17:27.996Z,2.00
2023-02-03T15:19:40.677Z,1.83
2023-02-03T15:21:43.202Z,1.60
2023-02-03T15:23:52.284Z,1.60
2023-02-03T15:26:01.950Z,2.00
2023-02-03T15:28:19.745Z,1.60
2023-02-03T15:30:27.956Z,2.35
2023-02-03T15:32:38.989Z,2.10
2023-02-03T15:34:46.071Z,2.78
2023-02-03T15:36:52.613Z,2.10
2023-02-03T15:39:05.387Z,2.50
2023-02-03T15:41:15.430Z,2.67
2023-02-03T15:43:38.269Z,2.50
2023-02-03T15:45:49.614Z,2.35
2023-02-03T15:47:58.468Z,2.95
2023-02-03T15:50:21.216Z,3.25
2023-02-03T15:52:25.685Z,2.47
2023-02-03T15:54:41.670Z,2.67
2023-02-03T15:56:58.129Z,2.50
2023-02-03T15:59:00.902Z,1.98
2023-02-03T16:01:11.209Z,2.50
2023-02-03T16:03:21.853Z,2.17
2023-02-03T16:05:34.384Z,2.42
2023-02-03T16:07:36.946Z,3.40
2023-02-03T16:09:42.518Z,3.03
2023-02-03T16:11:45.245Z,3.13
2023-02-03T16:13:48.645Z,2.72
2023-02-03T16:16:21.391Z,3.03
2023-02-03T16:18:24.744Z,3.22
2023-02-03T16:20:28.896Z,2.35
2023-02-03T16:22:36.116Z,3.85
2023-02-03T16:24:47.017Z,4.00
2023-02-03T16:26:49.435Z,4.72
2023-02-03T16:29:28.326Z,4.32
2023-02-03T16:31:49.947Z,2.72
2023-02-03T16:34:10.968Z,3.35
2023-02-03T16:36:33.476Z,2.75
2023-02-03T16:38:54.626Z,2.85
2023-02-03T16:41:15.413Z,3.47
2023-02-03T16:43:36.614Z,3.45
2023-02-03T16:45:58.026Z,3.13
2023-02-03T16:48:19.278Z,2.97
2023-02-03T16:50:42.975Z,3.80
2023-02-03T16:52:46.427Z,3.80
2023-02-03T16:54:48.960Z,2.97
2023-02-03T16:56:52.672Z,3.05
2023-02-03T16:58:55.627Z,4.53
2023-02-03T17:01:01.477Z,3.72
2023-02-03T17:03:05.526Z,3.88
2023-02-03T17:05:08.126Z,4.07
2023-02-03T17:07:10.936Z,3.42
2023-02-03T17:09:13.499Z,3.58
2023-02-03T17:11:20.227Z,3.35
2023-02-03T17:13:23.550Z,4.70
2023-02-03T17:15:26.023Z,7.80
2023-02-03T17:17:28.425Z,5.63
2023-02-03T17:19:30.826Z,4.57
2023-02-03T17:21:33.532Z,3.88
2023-02-03T17:23:36.976Z,3.65
2023-02-03T17:25:40.298Z,3.35
2023-02-03T17:27:42.951Z,4.03
2023-02-03T17:29:45.337Z,4.50
2023-02-03T17:31:48.065Z,4.80
2023-02-03T17:33:52.053Z,5.40
2023-02-03T17:36:10.186Z,4.03
2023-02-03T17:38:17.354Z,3.38
2023-02-03T17:54:19.271Z,4.13
2023-02-03T17:56:25.596Z,3.60
2023-02-03T17:58:28.125Z,3.72
2023-02-03T18:00:30.927Z,3.42
2023-02-03T18:02:34.181Z,3.55
2023-02-03T18:04:37.051Z,3.05
2023-02-03T18:06:40.359Z,2.88
2023-02-03T18:08:43.828Z,2.60
2023-02-03T18:10:46.237Z,2.97
2023-02-03T18:12:49.022Z,3.15
2023-02-03T18:14:51.652Z,2.70
2023-02-03T18:16:54.063Z,3.33
2023-02-03T18:18:57.100Z,3.10
2023-02-03T18:21:00.158Z,3.88
2023-02-03T18:23:03.111Z,3.30
2023-02-03T18:25:06.293Z,4.03
2023-02-03T18:27:08.881Z,3.40
2023-02-03T18:29:13.203Z,3.28
2023-02-03T18:31:18.153Z,4.05
2023-02-03T18:33:21.193Z,3.17
2023-02-03T18:35:24.397Z,3.35
2023-02-03T18:37:28.078Z,2.45
2023-02-03T18:39:31.247Z,3.40
2023-02-03T18:41:34.193Z,3.17
2023-02-03T18:43:37.438Z,3.85
2023-02-03T18:45:40.097Z,2.67
2023-02-03T18:47:42.620Z,3.60
2023-02-03T18:49:48.344Z,3.15
2023-02-03T18:51:51.522Z,2.92
2023-02-03T18:53:58.396Z,3.50
2023-02-03T18:56:01.223Z,2.88
2023-02-03T18:58:03.661Z,3.88
2023-02-03T19:00:08.543Z,4.07
2023-02-03T19:02:12.192Z,3.20
2023-02-03T19:04:15.015Z,3.38
2023-02-03T19:06:18.976Z,3.70
2023-02-03T19:08:22.426Z,4.60
2023-02-03T19:10:25.299Z,4.40
2023-02-03T19:12:28.068Z,3.95
2023-02-03T19:14:30.937Z,3.97
2023-02-03T19:16:33.672Z,4.38
2023-02-03T19:18:36.590Z,4.72
2023-02-03T19:20:39.442Z,4.00
2023-02-03T19:22:42.095Z,4.68
2023-02-03T19:24:44.990Z,3.88
2023-02-03T19:26:48.030Z,3.92
2023-02-03T19:28:51.424Z,4.35
2023-02-03T19:31:00.046Z,5.72
2023-02-03T19:33:09.109Z,4.40
2023-02-03T19:35:13.283Z,4.35
2023-02-03T19:37:16.587Z,3.55
2023-02-03T19:39:21.468Z,4.80
2023-02-03T19:41:26.546Z,3.03
2023-02-03T19:43:31.094Z,3.80
2023-02-03T19:45:34.211Z,3.92
2023-02-03T19:47:37.364Z,3.10
2023-02-03T19:49:40.415Z,3.47
2023-02-03T19:51:44.636Z,3.60
2023-02-03T19:53:48.088Z,3.33
2023-02-03T19:55:51.418Z,3.15
2023-02-03T19:57:54.175Z,4.15
2023-02-03T19:59:57.331Z,2.65
2023-02-03T20:02:12.695Z,3.17
2023-02-03T20:04:16.797Z,3.58
2023-02-03T20:06:19.565Z,4.20
2023-02-03T20:08:22.591Z,2.97
2023-02-03T20:10:26.768Z,4.03
2023-02-03T20:12:30.480Z,3.10
2023-02-03T20:14:33.617Z,3.75
2023-02-03T20:16:36.271Z,3.15
2023-02-03T20:18:39.165Z,3.83
2023-02-03T20:20:41.875Z,3.72
2023-02-03T20:22:44.336Z,4.00
2023-02-03T20:24:47.226Z,3.47
2023-02-03T20:26:50.571Z,3.17
2023-02-03T20:28:53.373Z,3.35
2023-02-03T20:30:58.883Z,3.38
2023-02-03T20:33:01.686Z,3.80
2023-02-03T20:35:05.539Z,2.92
2023-02-03T20:37:08.897Z,3.22
2023-02-03T20:39:20.497Z,3.20
2023-02-03T20:41:23.352Z,3.70
2023-02-03T20:43:31.666Z,3.10
2023-02-03T20:45:34.912Z,3.55
2023-02-03T20:47:38.079Z,4.32
2023-02-03T20:49:41.569Z,4.45
2023-02-03T20:51:44.207Z,2.63
2023-02-03T20:53:47.053Z,3.03
2023-02-03T20:55:51.177Z,3.00
2023-02-03T20:57:57.016Z,3.33
2023-02-03T20:59:59.610Z,3.03
2023-02-03T21:02:08.260Z,2.80
2023-02-03T21:04:34.055Z,2.80
2023-02-03T21:06:36.730Z,3.13
2023-02-03T21:08:40.026Z,3.58
2023-02-03T21:10:43.479Z,3.15
2023-02-03T21:12:46.362Z,3.50
2023-02-03T21:14:49.810Z,2.88
2023-02-03T21:16:54.552Z,3.00
2023-02-03T21:19:03.166Z,3.67
2023-02-03T21:21:14.099Z,3.67
2023-02-03T21:23:16.872Z,2.60
2023-02-03T21:25:35.102Z,3.50
2023-02-03T21:27:38.134Z,2.90
2023-02-03T21:29:41.038Z,2.92
2023-02-03T21:31:45.436Z,2.80
2023-02-03T21:33:48.365Z,3.40
2023-02-03T21:35:50.966Z,3.00
2023-02-03T21:37:57.555Z,2.70
2023-02-03T21:40:00.179Z,2.88
2023-02-03T21:42:40.942Z,2.35
2023-02-03T21:44:44.904Z,2.00
2023-02-03T21:46:47.675Z,2.40
2023-02-03T21:49:02.668Z,1.60
2023-02-03T21:51:23.546Z,2.05
2023-02-03T21:53:36.049Z,2.28
2023-02-03T21:55:40.685Z,1.40
2023-02-03T21:57:43.431Z,1.83
2023-02-03T21:59:49.750Z,1.77
2023-02-03T22:01:58.177Z,1.70
2023-02-03T22:04:02.544Z,1.67
2023-02-03T22:06:17.378Z,1.67
2023-02-03T22:08:24.421Z,1.27
2023-02-03T22:10:27.043Z,1.58
2023-02-03T22:12:29.365Z,1.45
2023-02-03T22:14:31.697Z,2.33
2023-02-03T22:16:34.740Z,1.50
2023-02-03T22:18:37.538Z,1.60
2023-02-03T22:20:40.261Z,1.40
2023-02-03T22:22:42.858Z,1.42
2023-02-03T22:24:45.553Z,1.40
2023-02-03T22:26:48.429Z,1.35
2023-02-03T22:28:50.957Z,1.58
2023-02-03T22:30:54.078Z,1.58
2023-02-03T22:32:58.621Z,1.40
2023-02-03T22:35:00.947Z,1.92
2023-02-03T22:37:03.543Z,1.63
2023-02-03T22:39:06.094Z,1.50
2023-02-03T22:41:12.291Z,1.33
2023-02-03T22:43:15.679Z,1.35
2023-02-03T22:45:18.853Z,1.17
2023-02-03T22:47:22.398Z,1.52
2023-02-03T22:49:25.071Z,1.05
2023-02-03T22:51:27.639Z,1.52
2023-02-03T22:53:30.893Z,1.48
2023-02-03T22:55:33.893Z,1.15
2023-02-03T22:57:38.569Z,1.33
2023-02-03T22:59:41.518Z,1.27
2023-02-03T23:01:44.313Z,1.30
2023-02-03T23:03:46.802Z,1.42
2023-02-03T23:05:49.274Z,1.90
2023-02-03T23:07:52.233Z,1.25
2023-02-03T23:09:54.522Z,1.30
2023-02-03T23:11:57.047Z,1.58
2023-02-03T23:13:59.569Z,1.42
2023-02-03T23:16:02.285Z,2.45
2023-02-03T23:18:05.003Z,1.45
2023-02-03T23:20:09.922Z,1.23
2023-02-03T23:22:12.745Z,1.15
2023-02-03T23:24:14.935Z,1.00
2023-02-03T23:26:17.446Z,1.23
2023-02-03T23:28:20.153Z,1.90
2023-02-03T23:30:22.601Z,1.20
2023-02-03T23:32:25.086Z,0.85
2023-02-03T23:34:45.915Z,1.40
2023-02-03T23:36:48.168Z,1.70
2023-02-03T23:38:50.561Z,1.60
2023-02-03T23:40:54.661Z,1.70
2023-02-03T23:42:57.046Z,1.38
2023-02-03T23:45:00.059Z,1.10
2023-02-03T23:47:02.708Z,1.33
2023-02-03T23:49:05.505Z,1.42
2023-02-03T23:51:08.915Z,1.08
2023-02-03T23:53:11.421Z,1.92
2023-02-03T23:55:17.086Z,1.30
2023-02-03T23:57:19.273Z,1.42
2023-02-03T23:59:21.614Z,1.30
